sensor_id;sensor_type;location;lat;lon;timestamp;P1;durP1;ratioP1;P2;durP2;ratioP2
55815;SDS011;41744;52.404;16.942;2022-09-27T00:02:22;21.07;;;10.87;;
55815;SDS011;41744;52.404;16.942;2022-09-27T00:04:47;20.83;;;11.40;;
55815;SDS011;41744;52.404;16.942;2022-09-27T00:07:14;20.33;;;10.93;;
55815;SDS011;41744;52.404;16.942;2022-09-27T00:09:40;23.85;;;11.98;;
55815;SDS011;41744;52.404;16.942;2022-09-27T00:12:06;23.23;;;11.77;;
55815;SDS011;41744;52.404;16.942;2022-09-27T00:14:32;24.87;;;12.07;;
55815;SDS011;41744;52.404;16.942;2022-09-27T00:16:58;20.93;;;11.47;;
55815;SDS011;41744;52.404;16.942;2022-09-27T00:19:24;23.30;;;12.20;;
55815;SDS011;41744;52.404;16.942;2022-09-27T00:21:50;22.23;;;11.57;;
55815;SDS011;41744;52.404;16.942;2022-09-27T00:24:17;22.77;;;11.77;;
55815;SDS011;41744;52.404;16.942;2022-09-27T00:26:43;21.90;;;11.30;;
55815;SDS011;41744;52.404;16.942;2022-09-27T00:29:11;23.00;;;11.82;;
55815;SDS011;41744;52.404;16.942;2022-09-27T00:31:37;28.10;;;12.53;;
55815;SDS011;41744;52.404;16.942;2022-09-27T00:34:03;26.13;;;12.80;;
55815;SDS011;41744;52.404;16.942;2022-09-27T00:36:30;24.33;;;13.47;;
55815;SDS011;41744;52.404;16.942;2022-09-27T00:38:57;28.90;;;13.38;;
55815;SDS011;41744;52.404;16.942;2022-09-27T00:41:27;27.97;;;14.00;;
55815;SDS011;41744;52.404;16.942;2022-09-27T00:43:55;33.03;;;13.87;;
55815;SDS011;41744;52.404;16.942;2022-09-27T00:48:47;25.63;;;13.77;;
55815;SDS011;41744;52.404;16.942;2022-09-27T00:51:16;32.40;;;14.80;;
55815;SDS011;41744;52.404;16.942;2022-09-27T00:53:47;32.00;;;14.40;;
55815;SDS011;41744;52.404;16.942;2022-09-27T00:56:19;29.75;;;13.85;;
55815;SDS011;41744;52.404;16.942;2022-09-27T00:58:48;30.03;;;13.60;;
55815;SDS011;41744;52.404;16.942;2022-09-27T01:01:15;25.67;;;13.77;;
55815;SDS011;41744;52.404;16.942;2022-09-27T01:03:43;25.80;;;13.07;;
55815;SDS011;41744;52.404;16.942;2022-09-27T01:06:10;29.08;;;13.73;;
55815;SDS011;41744;52.404;16.942;2022-09-27T01:08:36;25.93;;;13.83;;
55815;SDS011;41744;52.404;16.942;2022-09-27T01:13:38;25.97;;;12.83;;
55815;SDS011;41744;52.404;16.942;2022-09-27T01:16:11;24.40;;;13.10;;
55815;SDS011;41744;52.404;16.942;2022-09-27T01:19:06;22.17;;;11.67;;
55815;SDS011;41744;52.404;16.942;2022-09-27T01:21:29;22.17;;;11.30;;
55815;SDS011;41744;52.404;16.942;2022-09-27T01:24:05;22.77;;;12.03;;
55815;SDS011;41744;52.404;16.942;2022-09-27T01:34:22;22.20;;;11.82;;
55815;SDS011;41744;52.404;16.942;2022-09-27T01:44:49;23.60;;;12.07;;
55815;SDS011;41744;52.404;16.942;2022-09-27T01:47:16;21.00;;;11.17;;
55815;SDS011;41744;52.404;16.942;2022-09-27T01:52:12;23.27;;;11.38;;
55815;SDS011;41744;52.404;16.942;2022-09-27T01:54:42;22.50;;;11.20;;
55815;SDS011;41744;52.404;16.942;2022-09-27T01:57:10;23.70;;;11.47;;
55815;SDS011;41744;52.404;16.942;2022-09-27T01:59:45;22.57;;;11.33;;
55815;SDS011;41744;52.404;16.942;2022-09-27T02:02:12;26.10;;;11.70;;
55815;SDS011;41744;52.404;16.942;2022-09-27T02:04:39;21.93;;;11.80;;
55815;SDS011;41744;52.404;16.942;2022-09-27T02:07:11;26.50;;;12.17;;
55815;SDS011;41744;52.404;16.942;2022-09-27T02:09:41;26.23;;;12.03;;
55815;SDS011;41744;52.404;16.942;2022-09-27T02:12:11;24.98;;;11.93;;
55815;SDS011;41744;52.404;16.942;2022-09-27T02:14:41;24.73;;;12.10;;
55815;SDS011;41744;52.404;16.942;2022-09-27T02:24:44;24.77;;;11.37;;
55815;SDS011;41744;52.404;16.942;2022-09-27T02:27:16;21.87;;;10.77;;
55815;SDS011;41744;52.404;16.942;2022-09-27T02:29:48;23.23;;;11.83;;
55815;SDS011;41744;52.404;16.942;2022-09-27T02:32:15;22.67;;;11.43;;
55815;SDS011;41744;52.404;16.942;2022-09-27T02:34:41;20.53;;;10.70;;
55815;SDS011;41744;52.404;16.942;2022-09-27T02:37:08;23.07;;;11.77;;
55815;SDS011;41744;52.404;16.942;2022-09-27T02:39:34;19.37;;;10.73;;
55815;SDS011;41744;52.404;16.942;2022-09-27T02:42:01;23.60;;;11.37;;
55815;SDS011;41744;52.404;16.942;2022-09-27T02:44:27;24.40;;;11.63;;
55815;SDS011;41744;52.404;16.942;2022-09-27T03:00:07;19.17;;;9.63;;
55815;SDS011;41744;52.404;16.942;2022-09-27T03:05:03;16.45;;;8.65;;
55815;SDS011;41744;52.404;16.942;2022-09-27T03:07:30;16.65;;;8.48;;
55815;SDS011;41744;52.404;16.942;2022-09-27T03:09:56;22.67;;;10.07;;
55815;SDS011;41744;52.404;16.942;2022-09-27T03:12:22;20.80;;;9.87;;
55815;SDS011;41744;52.404;16.942;2022-09-27T03:14:53;18.83;;;10.13;;
55815;SDS011;41744;52.404;16.942;2022-09-27T03:17:19;20.58;;;9.65;;
55815;SDS011;41744;52.404;16.942;2022-09-27T03:19:46;21.73;;;10.90;;
55815;SDS011;41744;52.404;16.942;2022-09-27T03:22:13;20.10;;;10.50;;
55815;SDS011;41744;52.404;16.942;2022-09-27T03:24:39;22.15;;;11.18;;
55815;SDS011;41744;52.404;16.942;2022-09-27T03:27:05;22.15;;;11.23;;
55815;SDS011;41744;52.404;16.942;2022-09-27T03:29:31;24.65;;;11.27;;
55815;SDS011;41744;52.404;16.942;2022-09-27T03:31:57;20.63;;;10.45;;
55815;SDS011;41744;52.404;16.942;2022-09-27T03:34:23;20.80;;;10.83;;
55815;SDS011;41744;52.404;16.942;2022-09-27T03:36:49;21.50;;;10.80;;
55815;SDS011;41744;52.404;16.942;2022-09-27T03:39:15;21.73;;;11.25;;
55815;SDS011;41744;52.404;16.942;2022-09-27T03:41:41;21.02;;;11.10;;
55815;SDS011;41744;52.404;16.942;2022-09-27T03:44:07;21.80;;;11.25;;
55815;SDS011;41744;52.404;16.942;2022-09-27T03:46:33;23.20;;;11.38;;
55815;SDS011;41744;52.404;16.942;2022-09-27T03:48:59;23.33;;;11.65;;
55815;SDS011;41744;52.404;16.942;2022-09-27T03:51:25;23.58;;;11.65;;
55815;SDS011;41744;52.404;16.942;2022-09-27T03:53:51;23.33;;;11.65;;
55815;SDS011;41744;52.404;16.942;2022-09-27T03:56:18;27.30;;;12.10;;
55815;SDS011;41744;52.404;16.942;2022-09-27T03:58:44;24.27;;;11.73;;
55815;SDS011;41744;52.404;16.942;2022-09-27T04:01:10;28.60;;;13.20;;
55815;SDS011;41744;52.404;16.942;2022-09-27T04:03:36;26.33;;;12.48;;
55815;SDS011;41744;52.404;16.942;2022-09-27T04:06:02;24.98;;;13.05;;
55815;SDS011;41744;52.404;16.942;2022-09-27T04:08:28;25.52;;;13.18;;
55815;SDS011;41744;52.404;16.942;2022-09-27T04:10:55;23.75;;;12.30;;
55815;SDS011;41744;52.404;16.942;2022-09-27T04:13:21;24.03;;;12.03;;
55815;SDS011;41744;52.404;16.942;2022-09-27T04:15:47;22.83;;;12.10;;
55815;SDS011;41744;52.404;16.942;2022-09-27T04:18:13;24.38;;;12.88;;
55815;SDS011;41744;52.404;16.942;2022-09-27T04:20:39;25.17;;;12.43;;
55815;SDS011;41744;52.404;16.942;2022-09-27T04:23:05;23.00;;;11.98;;
55815;SDS011;41744;52.404;16.942;2022-09-27T04:25:31;26.02;;;12.82;;
55815;SDS011;41744;52.404;16.942;2022-09-27T04:27:57;25.20;;;12.10;;
55815;SDS011;41744;52.404;16.942;2022-09-27T04:30:25;24.13;;;11.88;;
55815;SDS011;41744;52.404;16.942;2022-09-27T04:32:51;23.83;;;11.73;;
55815;SDS011;41744;52.404;16.942;2022-09-27T04:35:17;24.25;;;11.82;;
55815;SDS011;41744;52.404;16.942;2022-09-27T04:38:01;24.75;;;11.10;;
55815;SDS011;41744;52.404;16.942;2022-09-27T04:40:28;24.63;;;11.15;;
55815;SDS011;41744;52.404;16.942;2022-09-27T04:42:54;22.73;;;11.32;;
55815;SDS011;41744;52.404;16.942;2022-09-27T04:45:20;23.87;;;10.93;;
55815;SDS011;41744;52.404;16.942;2022-09-27T04:47:47;22.63;;;10.73;;
55815;SDS011;41744;52.404;16.942;2022-09-27T04:50:14;19.40;;;10.02;;
55815;SDS011;41744;52.404;16.942;2022-09-27T04:52:41;19.90;;;10.43;;
55815;SDS011;41744;52.404;16.942;2022-09-27T04:55:08;20.35;;;10.32;;
55815;SDS011;41744;52.404;16.942;2022-09-27T04:57:34;20.60;;;11.03;;
55815;SDS011;41744;52.404;16.942;2022-09-27T05:00:00;21.02;;;10.63;;
55815;SDS011;41744;52.404;16.942;2022-09-27T05:02:26;25.15;;;10.07;;
55815;SDS011;41744;52.404;16.942;2022-09-27T05:04:53;21.03;;;10.63;;
55815;SDS011;41744;52.404;16.942;2022-09-27T05:07:23;19.63;;;10.40;;
55815;SDS011;41744;52.404;16.942;2022-09-27T05:09:49;20.95;;;10.30;;
55815;SDS011;41744;52.404;16.942;2022-09-27T05:12:15;19.65;;;10.32;;
55815;SDS011;41744;52.404;16.942;2022-09-27T05:14:41;22.45;;;10.65;;
55815;SDS011;41744;52.404;16.942;2022-09-27T05:17:07;19.10;;;10.23;;
55815;SDS011;41744;52.404;16.942;2022-09-27T05:19:34;18.65;;;9.90;;
55815;SDS011;41744;52.404;16.942;2022-09-27T05:22:00;18.90;;;9.70;;
55815;SDS011;41744;52.404;16.942;2022-09-27T05:24:26;16.90;;;9.75;;
55815;SDS011;41744;52.404;16.942;2022-09-27T05:26:52;18.50;;;10.13;;
55815;SDS011;41744;52.404;16.942;2022-09-27T05:29:19;21.27;;;10.53;;
55815;SDS011;41744;52.404;16.942;2022-09-27T05:31:45;22.42;;;9.90;;
55815;SDS011;41744;52.404;16.942;2022-09-27T05:34:11;23.40;;;10.90;;
55815;SDS011;41744;52.404;16.942;2022-09-27T05:36:37;20.73;;;10.38;;
55815;SDS011;41744;52.404;16.942;2022-09-27T05:39:04;20.73;;;10.70;;
55815;SDS011;41744;52.404;16.942;2022-09-27T05:41:31;22.35;;;10.80;;
55815;SDS011;41744;52.404;16.942;2022-09-27T05:43:57;22.25;;;10.90;;
55815;SDS011;41744;52.404;16.942;2022-09-27T05:46:23;22.77;;;11.17;;
55815;SDS011;41744;52.404;16.942;2022-09-27T05:48:50;27.37;;;11.43;;
55815;SDS011;41744;52.404;16.942;2022-09-27T05:51:16;24.45;;;11.75;;
55815;SDS011;41744;52.404;16.942;2022-09-27T05:53:43;22.65;;;12.02;;
55815;SDS011;41744;52.404;16.942;2022-09-27T05:56:09;26.40;;;11.67;;
55815;SDS011;41744;52.404;16.942;2022-09-27T05:58:35;23.33;;;11.93;;
55815;SDS011;41744;52.404;16.942;2022-09-27T06:01:04;22.98;;;11.88;;
55815;SDS011;41744;52.404;16.942;2022-09-27T06:03:30;22.13;;;11.90;;
55815;SDS011;41744;52.404;16.942;2022-09-27T06:06:00;26.27;;;12.00;;
55815;SDS011;41744;52.404;16.942;2022-09-27T06:08:27;23.50;;;12.02;;
55815;SDS011;41744;52.404;16.942;2022-09-27T06:10:59;32.17;;;12.65;;
55815;SDS011;41744;52.404;16.942;2022-09-27T06:13:26;25.27;;;11.97;;
55815;SDS011;41744;52.404;16.942;2022-09-27T06:15:52;25.15;;;11.98;;
55815;SDS011;41744;52.404;16.942;2022-09-27T06:18:18;24.67;;;12.52;;
55815;SDS011;41744;52.404;16.942;2022-09-27T06:20:44;30.55;;;12.73;;
55815;SDS011;41744;52.404;16.942;2022-09-27T06:23:11;28.02;;;12.40;;
55815;SDS011;41744;52.404;16.942;2022-09-27T06:25:37;30.35;;;13.90;;
55815;SDS011;41744;52.404;16.942;2022-09-27T06:28:04;23.70;;;11.95;;
55815;SDS011;41744;52.404;16.942;2022-09-27T06:30:30;29.65;;;13.52;;
55815;SDS011;41744;52.404;16.942;2022-09-27T06:32:57;26.20;;;12.83;;
55815;SDS011;41744;52.404;16.942;2022-09-27T06:35:24;29.17;;;13.20;;
55815;SDS011;41744;52.404;16.942;2022-09-27T06:37:51;27.73;;;13.05;;
55815;SDS011;41744;52.404;16.942;2022-09-27T06:40:17;26.45;;;13.13;;
55815;SDS011;41744;52.404;16.942;2022-09-27T06:42:43;26.00;;;13.20;;
55815;SDS011;41744;52.404;16.942;2022-09-27T06:45:10;27.20;;;13.15;;
55815;SDS011;41744;52.404;16.942;2022-09-27T06:47:36;27.05;;;12.95;;
55815;SDS011;41744;52.404;16.942;2022-09-27T06:50:03;26.10;;;12.95;;
55815;SDS011;41744;52.404;16.942;2022-09-27T06:52:30;27.50;;;13.07;;
55815;SDS011;41744;52.404;16.942;2022-09-27T06:54:56;26.98;;;13.13;;
55815;SDS011;41744;52.404;16.942;2022-09-27T06:57:22;25.50;;;13.25;;
55815;SDS011;41744;52.404;16.942;2022-09-27T07:00:08;28.55;;;13.60;;
55815;SDS011;41744;52.404;16.942;2022-09-27T07:02:52;26.55;;;12.38;;
55815;SDS011;41744;52.404;16.942;2022-09-27T07:05:24;27.48;;;13.13;;
55815;SDS011;41744;52.404;16.942;2022-09-27T07:07:51;31.35;;;13.65;;
55815;SDS011;41744;52.404;16.942;2022-09-27T07:10:20;29.60;;;13.98;;
55815;SDS011;41744;52.404;16.942;2022-09-27T07:12:46;27.70;;;13.75;;
55815;SDS011;41744;52.404;16.942;2022-09-27T07:15:13;25.85;;;13.77;;
55815;SDS011;41744;52.404;16.942;2022-09-27T07:17:39;27.50;;;13.32;;
55815;SDS011;41744;52.404;16.942;2022-09-27T07:20:05;27.90;;;13.40;;
55815;SDS011;41744;52.404;16.942;2022-09-27T07:22:31;27.10;;;13.45;;
55815;SDS011;41744;52.404;16.942;2022-09-27T07:24:57;27.55;;;12.60;;
55815;SDS011;41744;52.404;16.942;2022-09-27T07:27:23;26.77;;;12.52;;
55815;SDS011;41744;52.404;16.942;2022-09-27T07:29:50;26.88;;;13.25;;
55815;SDS011;41744;52.404;16.942;2022-09-27T07:32:16;25.67;;;12.13;;
55815;SDS011;41744;52.404;16.942;2022-09-27T07:34:42;28.02;;;12.82;;
55815;SDS011;41744;52.404;16.942;2022-09-27T07:37:08;24.80;;;12.25;;
55815;SDS011;41744;52.404;16.942;2022-09-27T07:39:35;26.88;;;13.05;;
55815;SDS011;41744;52.404;16.942;2022-09-27T07:42:01;25.30;;;11.77;;
55815;SDS011;41744;52.404;16.942;2022-09-27T07:44:27;24.23;;;11.60;;
55815;SDS011;41744;52.404;16.942;2022-09-27T07:46:53;21.60;;;11.40;;
55815;SDS011;41744;52.404;16.942;2022-09-27T07:49:19;25.75;;;10.77;;
55815;SDS011;41744;52.404;16.942;2022-09-27T07:51:45;26.02;;;11.00;;
55815;SDS011;41744;52.404;16.942;2022-09-27T07:54:11;23.95;;;10.65;;
55815;SDS011;41744;52.404;16.942;2022-09-27T07:56:37;21.95;;;11.50;;
55815;SDS011;41744;52.404;16.942;2022-09-27T07:59:03;23.10;;;10.18;;
55815;SDS011;41744;52.404;16.942;2022-09-27T08:01:29;21.00;;;9.98;;
55815;SDS011;41744;52.404;16.942;2022-09-27T08:03:54;22.70;;;9.98;;
55815;SDS011;41744;52.404;16.942;2022-09-27T08:06:22;20.27;;;9.15;;
55815;SDS011;41744;52.404;16.942;2022-09-27T08:08:49;19.10;;;9.43;;
55815;SDS011;41744;52.404;16.942;2022-09-27T08:11:15;20.85;;;9.07;;
55815;SDS011;41744;52.404;16.942;2022-09-27T08:13:43;16.05;;;8.20;;
55815;SDS011;41744;52.404;16.942;2022-09-27T08:16:09;20.90;;;9.10;;
55815;SDS011;41744;52.404;16.942;2022-09-27T08:18:35;19.75;;;9.50;;
55815;SDS011;41744;52.404;16.942;2022-09-27T08:21:01;17.63;;;9.00;;
55815;SDS011;41744;52.404;16.942;2022-09-27T08:23:27;19.13;;;9.10;;
55815;SDS011;41744;52.404;16.942;2022-09-27T08:25:54;21.65;;;9.88;;
55815;SDS011;41744;52.404;16.942;2022-09-27T08:28:21;21.33;;;8.82;;
55815;SDS011;41744;52.404;16.942;2022-09-27T08:30:48;16.33;;;8.23;;
55815;SDS011;41744;52.404;16.942;2022-09-27T08:33:14;21.50;;;8.95;;
55815;SDS011;41744;52.404;16.942;2022-09-27T08:35:40;17.23;;;9.15;;
55815;SDS011;41744;52.404;16.942;2022-09-27T08:38:08;21.05;;;8.23;;
55815;SDS011;41744;52.404;16.942;2022-09-27T08:40:45;17.00;;;8.45;;
55815;SDS011;41744;52.404;16.942;2022-09-27T08:43:33;15.38;;;8.43;;
55815;SDS011;41744;52.404;16.942;2022-09-27T08:46:10;15.82;;;8.13;;
55815;SDS011;41744;52.404;16.942;2022-09-27T08:48:38;17.38;;;8.52;;
55815;SDS011;41744;52.404;16.942;2022-09-27T08:51:04;23.58;;;8.23;;
55815;SDS011;41744;52.404;16.942;2022-09-27T08:53:36;19.85;;;8.65;;
55815;SDS011;41744;52.404;16.942;2022-09-27T08:56:05;16.60;;;8.27;;
55815;SDS011;41744;52.404;16.942;2022-09-27T08:58:34;15.10;;;8.02;;
55815;SDS011;41744;52.404;16.942;2022-09-27T09:01:01;21.27;;;8.38;;
55815;SDS011;41744;52.404;16.942;2022-09-27T09:03:39;15.70;;;8.02;;
55815;SDS011;41744;52.404;16.942;2022-09-27T09:06:27;15.07;;;8.00;;
55815;SDS011;41744;52.404;16.942;2022-09-27T09:09:03;15.95;;;7.90;;
55815;SDS011;41744;52.404;16.942;2022-09-27T09:14:24;15.48;;;7.57;;
55815;SDS011;41744;52.404;16.942;2022-09-27T09:17:08;15.25;;;7.50;;
55815;SDS011;41744;52.404;16.942;2022-09-27T09:27:24;14.55;;;7.28;;
55815;SDS011;41744;52.404;16.942;2022-09-27T09:35:20;12.52;;;7.40;;
55815;SDS011;41744;52.404;16.942;2022-09-27T09:37:48;12.70;;;6.97;;
55815;SDS011;41744;52.404;16.942;2022-09-27T09:43:01;14.88;;;7.68;;
55815;SDS011;41744;52.404;16.942;2022-09-27T09:45:29;17.15;;;7.82;;
55815;SDS011;41744;52.404;16.942;2022-09-27T09:47:58;14.38;;;7.57;;
55815;SDS011;41744;52.404;16.942;2022-09-27T09:50:27;13.07;;;6.60;;
55815;SDS011;41744;52.404;16.942;2022-09-27T09:52:55;13.38;;;7.22;;
55815;SDS011;41744;52.404;16.942;2022-09-27T09:55:24;12.82;;;6.93;;
55815;SDS011;41744;52.404;16.942;2022-09-27T09:58:05;15.20;;;7.15;;
55815;SDS011;41744;52.404;16.942;2022-09-27T10:00:35;12.65;;;6.95;;
55815;SDS011;41744;52.404;16.942;2022-09-27T10:03:03;10.77;;;6.45;;
55815;SDS011;41744;52.404;16.942;2022-09-27T10:05:29;12.27;;;6.90;;
55815;SDS011;41744;52.404;16.942;2022-09-27T10:07:57;11.45;;;6.43;;
55815;SDS011;41744;52.404;16.942;2022-09-27T10:10:23;13.80;;;7.00;;
55815;SDS011;41744;52.404;16.942;2022-09-27T10:12:49;15.32;;;7.55;;
55815;SDS011;41744;52.404;16.942;2022-09-27T10:15:20;14.75;;;6.68;;
55815;SDS011;41744;52.404;16.942;2022-09-27T10:17:49;12.45;;;6.78;;
55815;SDS011;41744;52.404;16.942;2022-09-27T10:20:37;18.58;;;7.25;;
55815;SDS011;41744;52.404;16.942;2022-09-27T10:23:08;14.32;;;6.72;;
55815;SDS011;41744;52.404;16.942;2022-09-27T10:28:24;13.90;;;7.28;;
55815;SDS011;41744;52.404;16.942;2022-09-27T10:30:54;12.15;;;6.72;;
55815;SDS011;41744;52.404;16.942;2022-09-27T10:33:21;14.35;;;7.32;;
55815;SDS011;41744;52.404;16.942;2022-09-27T10:35:47;15.10;;;7.07;;
55815;SDS011;41744;52.404;16.942;2022-09-27T10:40:46;14.27;;;7.50;;
55815;SDS011;41744;52.404;16.942;2022-09-27T10:48:36;16.40;;;7.88;;
55815;SDS011;41744;52.404;16.942;2022-09-27T10:51:04;17.52;;;9.00;;
55815;SDS011;41744;52.404;16.942;2022-09-27T10:53:30;15.88;;;7.82;;
55815;SDS011;41744;52.404;16.942;2022-09-27T10:55:57;15.40;;;7.43;;
55815;SDS011;41744;52.404;16.942;2022-09-27T10:58:41;17.52;;;8.18;;
55815;SDS011;41744;52.404;16.942;2022-09-27T11:01:10;13.45;;;7.82;;
55815;SDS011;41744;52.404;16.942;2022-09-27T11:03:37;15.38;;;8.57;;
55815;SDS011;41744;52.404;16.942;2022-09-27T11:06:25;16.35;;;9.02;;
55815;SDS011;41744;52.404;16.942;2022-09-27T11:08:53;21.63;;;8.68;;
55815;SDS011;41744;52.404;16.942;2022-09-27T11:11:22;16.20;;;8.80;;
55815;SDS011;41744;52.404;16.942;2022-09-27T11:14:02;18.52;;;8.77;;
55815;SDS011;41744;52.404;16.942;2022-09-27T11:27:38;16.20;;;9.30;;
55815;SDS011;41744;52.404;16.942;2022-09-27T11:32:44;16.17;;;8.77;;
55815;SDS011;41744;52.404;16.942;2022-09-27T11:38:01;18.88;;;9.05;;
55815;SDS011;41744;52.404;16.942;2022-09-27T11:40:46;17.42;;;8.60;;
55815;SDS011;41744;52.404;16.942;2022-09-27T11:45:56;19.20;;;8.90;;
55815;SDS011;41744;52.404;16.942;2022-09-27T11:48:31;16.77;;;8.98;;
55815;SDS011;41744;52.404;16.942;2022-09-27T11:51:21;15.68;;;8.70;;
55815;SDS011;41744;52.404;16.942;2022-09-27T11:56:31;16.67;;;9.20;;
55815;SDS011;41744;52.404;16.942;2022-09-27T12:16:23;16.02;;;9.10;;
55815;SDS011;41744;52.404;16.942;2022-09-27T12:18:51;19.98;;;9.38;;
55815;SDS011;41744;52.404;16.942;2022-09-27T12:21:18;22.50;;;9.43;;
55815;SDS011;41744;52.404;16.942;2022-09-27T12:23:45;17.70;;;9.18;;
55815;SDS011;41744;52.404;16.942;2022-09-27T12:29:01;19.63;;;9.85;;
55815;SDS011;41744;52.404;16.942;2022-09-27T12:31:30;18.95;;;9.60;;
55815;SDS011;41744;52.404;16.942;2022-09-27T12:34:10;22.55;;;9.60;;
55815;SDS011;41744;52.404;16.942;2022-09-27T12:36:40;18.92;;;9.25;;
55815;SDS011;41744;52.404;16.942;2022-09-27T12:39:12;18.48;;;8.90;;
55815;SDS011;41744;52.404;16.942;2022-09-27T12:41:42;16.77;;;9.20;;
55815;SDS011;41744;52.404;16.942;2022-09-27T12:44:10;18.65;;;9.20;;
55815;SDS011;41744;52.404;16.942;2022-09-27T12:49:32;16.00;;;8.13;;
55815;SDS011;41744;52.404;16.942;2022-09-27T12:52:05;16.88;;;8.60;;
55815;SDS011;41744;52.404;16.942;2022-09-27T12:55:00;15.77;;;7.93;;
55815;SDS011;41744;52.404;16.942;2022-09-27T12:57:38;17.33;;;7.82;;
55815;SDS011;41744;52.404;16.942;2022-09-27T13:00:27;14.77;;;7.32;;
55815;SDS011;41744;52.404;16.942;2022-09-27T13:14:04;18.20;;;7.70;;
55815;SDS011;41744;52.404;16.942;2022-09-27T13:16:40;16.35;;;7.88;;
55815;SDS011;41744;52.404;16.942;2022-09-27T13:19:12;15.32;;;7.78;;
55815;SDS011;41744;52.404;16.942;2022-09-27T13:21:53;15.15;;;7.68;;
55815;SDS011;41744;52.404;16.942;2022-09-27T13:29:48;16.52;;;8.02;;
55815;SDS011;41744;52.404;16.942;2022-09-27T13:32:21;20.67;;;7.65;;
55815;SDS011;41744;52.404;16.942;2022-09-27T13:37:31;17.10;;;8.90;;
55815;SDS011;41744;52.404;16.942;2022-09-27T13:42:37;23.65;;;8.95;;
55815;SDS011;41744;52.404;16.942;2022-09-27T13:45:17;16.65;;;8.52;;
55815;SDS011;41744;52.404;16.942;2022-09-27T13:47:45;17.80;;;8.57;;
55815;SDS011;41744;52.404;16.942;2022-09-27T13:50:15;16.77;;;8.65;;
55815;SDS011;41744;52.404;16.942;2022-09-27T13:52:42;17.90;;;9.15;;
55815;SDS011;41744;52.404;16.942;2022-09-27T13:57:55;16.70;;;8.30;;
55815;SDS011;41744;52.404;16.942;2022-09-27T14:00:23;19.20;;;7.90;;
55815;SDS011;41744;52.404;16.942;2022-09-27T14:02:54;15.82;;;7.85;;
55815;SDS011;41744;52.404;16.942;2022-09-27T14:05:22;17.33;;;8.35;;
55815;SDS011;41744;52.404;16.942;2022-09-27T14:07:50;16.77;;;8.02;;
55815;SDS011;41744;52.404;16.942;2022-09-27T14:10:18;14.70;;;7.40;;
55815;SDS011;41744;52.404;16.942;2022-09-27T14:12:46;14.75;;;7.22;;
55815;SDS011;41744;52.404;16.942;2022-09-27T14:18:05;15.45;;;7.05;;
55815;SDS011;41744;52.404;16.942;2022-09-27T14:20:38;15.23;;;6.57;;
55815;SDS011;41744;52.404;16.942;2022-09-27T14:23:10;11.48;;;6.18;;
55815;SDS011;41744;52.404;16.942;2022-09-27T14:25:43;13.23;;;7.07;;
55815;SDS011;41744;52.404;16.942;2022-09-27T14:28:19;16.55;;;7.18;;
55815;SDS011;41744;52.404;16.942;2022-09-27T14:30:46;15.60;;;6.57;;
55815;SDS011;41744;52.404;16.942;2022-09-27T14:33:31;14.00;;;6.90;;
55815;SDS011;41744;52.404;16.942;2022-09-27T14:35:58;12.27;;;6.75;;
55815;SDS011;41744;52.404;16.942;2022-09-27T14:38:43;12.07;;;6.32;;
55815;SDS011;41744;52.404;16.942;2022-09-27T14:41:09;15.25;;;6.40;;
55815;SDS011;41744;52.404;16.942;2022-09-27T14:43:40;14.50;;;6.35;;
55815;SDS011;41744;52.404;16.942;2022-09-27T14:46:20;10.85;;;5.70;;
55815;SDS011;41744;52.404;16.942;2022-09-27T14:48:48;12.68;;;6.53;;
55815;SDS011;41744;52.404;16.942;2022-09-27T14:51:18;14.05;;;6.07;;
55815;SDS011;41744;52.404;16.942;2022-09-27T14:53:50;12.65;;;6.40;;
55815;SDS011;41744;52.404;16.942;2022-09-27T14:56:28;12.52;;;6.38;;
55815;SDS011;41744;52.404;16.942;2022-09-27T14:59:20;11.45;;;5.93;;
55815;SDS011;41744;52.404;16.942;2022-09-27T15:01:49;13.23;;;6.60;;
55815;SDS011;41744;52.404;16.942;2022-09-27T15:04:15;10.02;;;5.50;;
55815;SDS011;41744;52.404;16.942;2022-09-27T15:06:41;10.43;;;6.03;;
55815;SDS011;41744;52.404;16.942;2022-09-27T15:09:10;12.25;;;6.63;;
55815;SDS011;41744;52.404;16.942;2022-09-27T15:11:38;11.93;;;5.53;;
55815;SDS011;41744;52.404;16.942;2022-09-27T15:14:05;13.80;;;6.10;;
55815;SDS011;41744;52.404;16.942;2022-09-27T15:16:32;12.38;;;5.78;;
55815;SDS011;41744;52.404;16.942;2022-09-27T15:18:59;14.02;;;5.93;;
55815;SDS011;41744;52.404;16.942;2022-09-27T15:21:31;11.93;;;5.95;;
55815;SDS011;41744;52.404;16.942;2022-09-27T15:23:57;14.65;;;5.65;;
55815;SDS011;41744;52.404;16.942;2022-09-27T15:26:41;11.43;;;5.55;;
55815;SDS011;41744;52.404;16.942;2022-09-27T15:29:18;12.27;;;6.63;;
55815;SDS011;41744;52.404;16.942;2022-09-27T15:31:45;12.32;;;6.25;;
55815;SDS011;41744;52.404;16.942;2022-09-27T15:34:16;12.45;;;6.35;;
55815;SDS011;41744;52.404;16.942;2022-09-27T15:39:26;9.95;;;6.45;;
55815;SDS011;41744;52.404;16.942;2022-09-27T15:49:52;11.52;;;5.60;;
55815;SDS011;41744;52.404;16.942;2022-09-27T15:52:38;12.27;;;6.18;;
55815;SDS011;41744;52.404;16.942;2022-09-27T15:55:05;10.90;;;6.20;;
55815;SDS011;41744;52.404;16.942;2022-09-27T15:57:31;10.35;;;6.18;;
55815;SDS011;41744;52.404;16.942;2022-09-27T15:59:57;12.18;;;6.75;;
55815;SDS011;41744;52.404;16.942;2022-09-27T16:02:23;13.50;;;6.45;;
55815;SDS011;41744;52.404;16.942;2022-09-27T16:04:49;12.70;;;6.20;;
55815;SDS011;41744;52.404;16.942;2022-09-27T16:07:15;11.40;;;6.30;;
55815;SDS011;41744;52.404;16.942;2022-09-27T16:09:41;13.85;;;6.30;;
55815;SDS011;41744;52.404;16.942;2022-09-27T16:12:09;11.15;;;6.00;;
55815;SDS011;41744;52.404;16.942;2022-09-27T16:14:35;11.90;;;6.47;;
55815;SDS011;41744;52.404;16.942;2022-09-27T16:17:04;12.55;;;6.07;;
55815;SDS011;41744;52.404;16.942;2022-09-27T16:19:30;12.57;;;6.63;;
55815;SDS011;41744;52.404;16.942;2022-09-27T16:21:56;14.55;;;6.43;;
55815;SDS011;41744;52.404;16.942;2022-09-27T16:24:22;13.65;;;6.72;;
55815;SDS011;41744;52.404;16.942;2022-09-27T16:26:53;12.07;;;6.30;;
55815;SDS011;41744;52.404;16.942;2022-09-27T16:29:19;13.40;;;7.13;;
55815;SDS011;41744;52.404;16.942;2022-09-27T16:31:45;14.55;;;7.32;;
55815;SDS011;41744;52.404;16.942;2022-09-27T16:34:11;17.20;;;7.32;;
55815;SDS011;41744;52.404;16.942;2022-09-27T16:36:37;14.93;;;7.07;;
55815;SDS011;41744;52.404;16.942;2022-09-27T16:39:05;11.98;;;5.97;;
55815;SDS011;41744;52.404;16.942;2022-09-27T16:41:34;13.10;;;7.10;;
55815;SDS011;41744;52.404;16.942;2022-09-27T16:44:07;15.35;;;7.45;;
55815;SDS011;41744;52.404;16.942;2022-09-27T16:46:34;16.45;;;7.97;;
55815;SDS011;41744;52.404;16.942;2022-09-27T16:49:00;13.30;;;7.05;;
55815;SDS011;41744;52.404;16.942;2022-09-27T16:51:26;16.90;;;7.45;;
55815;SDS011;41744;52.404;16.942;2022-09-27T16:54:11;15.43;;;7.18;;
55815;SDS011;41744;52.404;16.942;2022-09-27T16:56:39;13.55;;;7.30;;
55815;SDS011;41744;52.404;16.942;2022-09-27T16:59:06;16.75;;;7.53;;
55815;SDS011;41744;52.404;16.942;2022-09-27T17:01:32;15.48;;;7.68;;
55815;SDS011;41744;52.404;16.942;2022-09-27T17:03:58;12.20;;;6.40;;
55815;SDS011;41744;52.404;16.942;2022-09-27T17:06:25;7.75;;;3.90;;